DLH44K EHAM-EDDF
Flight info
| Callsign | DLH44K |
|---|---|
| Flight time | N/A |
| Altitude | 35000 |
| Route | EDUPO Z739 MISGO DCT DIXAT DIXAT1A |
| Aircraft | A388/J-SADE2E3FGHIJ3J4J5M1RWXY/LB1D1 |
Departure
| Time | 2026-05-07 14:50 |
|---|---|
| Airport | Amsterdam Airport Schiphol (EHAM) |
Arrival
| Time | N/A |
|---|---|
| Airport | Frankfurt Main Airport (EDDF) |
| Time | Latitude | Longitude | Altitude | Speed | Heading |
|---|---|---|---|---|---|
| 2026-05-07 14:23 | 52.31400 | 4.77054 | 10 ft | 0 kts | 302° |
| 2026-05-07 14:38 | 52.31397 | 4.77062 | 10 ft | 1 kts | 302° |
| 2026-05-07 14:38 | 52.31391 | 4.77077 | 10 ft | 2 kts | 302° |
| 2026-05-07 14:38 | 52.31384 | 4.77095 | 11 ft | 2 kts | 302° |
| 2026-05-07 14:39 | 52.31377 | 4.77111 | 9 ft | 2 kts | 309° |
| 2026-05-07 14:39 | 52.31366 | 4.77123 | 10 ft | 2 kts | 333° |
| 2026-05-07 14:39 | 52.31354 | 4.77127 | 11 ft | 2 kts | 357° |
| 2026-05-07 14:39 | 52.31341 | 4.77123 | 11 ft | 3 kts | 13° |
| 2026-05-07 14:40 | 52.31323 | 4.77113 | 10 ft | 3 kts | 19° |
| 2026-05-07 14:40 | 52.31311 | 4.77103 | 10 ft | 0 kts | 30° |
| 2026-05-07 14:43 | 52.31327 | 4.77118 | 10 ft | 6 kts | 30° |
| 2026-05-07 14:44 | 52.31379 | 4.77168 | 12 ft | 10 kts | 26° |
| 2026-05-07 14:44 | 52.31451 | 4.77194 | 11 ft | 12 kts | 6° |
| 2026-05-07 14:44 | 52.31534 | 4.77186 | 12 ft | 11 kts | 326° |
| 2026-05-07 14:44 | 52.31566 | 4.77084 | 15 ft | 11 kts | 277° |
| 2026-05-07 14:45 | 52.31567 | 4.76952 | 16 ft | 14 kts | 268° |
| 2026-05-07 14:45 | 52.31562 | 4.76781 | 16 ft | 18 kts | 266° |
| 2026-05-07 14:45 | 52.31553 | 4.76554 | 21 ft | 21 kts | 266° |
| 2026-05-07 14:45 | 52.31543 | 4.76308 | 22 ft | 23 kts | 266° |
| 2026-05-07 14:46 | 52.31533 | 4.76041 | 27 ft | 24 kts | 267° |
| 2026-05-07 14:46 | 52.31524 | 4.75747 | 17 ft | 27 kts | 267° |
| 2026-05-07 14:46 | 52.31514 | 4.75437 | 17 ft | 28 kts | 267° |
| 2026-05-07 14:46 | 52.31502 | 4.75117 | 16 ft | 28 kts | 266° |
| 2026-05-07 14:47 | 52.31495 | 4.74939 | 22 ft | 2 kts | 266° |
| 2026-05-07 14:47 | 52.31492 | 4.74843 | 22 ft | 14 kts | 266° |
| 2026-05-07 14:47 | 52.31520 | 4.74706 | 21 ft | 12 kts | 322° |
| 2026-05-07 14:47 | 52.31595 | 4.74665 | 27 ft | 11 kts | 352° |
| 2026-05-07 14:48 | 52.31652 | 4.74705 | 27 ft | 10 kts | 54° |
| 2026-05-07 14:48 | 52.31673 | 4.74817 | 23 ft | 0 kts | 85° |
| 2026-05-07 14:49 | 52.31673 | 4.74826 | 24 ft | 0 kts | 85° |
| 2026-05-07 14:50 | 52.31677 | 4.74901 | 21 ft | 27 kts | 85° |
| 2026-05-07 14:50 | 52.31713 | 4.75784 | 25 ft | 128 kts | 86° |
| 2026-05-07 14:50 | 52.31770 | 4.77543 | 249 ft | 172 kts | 84° |
| 2026-05-07 14:50 | 52.31857 | 4.79480 | 1087 ft | 170 kts | 81° |
| 2026-05-07 14:51 | 52.31971 | 4.81383 | 2020 ft | 170 kts | 83° |
| 2026-05-07 14:51 | 52.32056 | 4.83341 | 2462 ft | 187 kts | 86° |
| 2026-05-07 14:51 | 52.32087 | 4.85637 | 2970 ft | 212 kts | 92° |
| 2026-05-07 14:51 | 52.31786 | 4.88093 | 3546 ft | 236 kts | 109° |
| 2026-05-07 14:52 | 52.31074 | 4.90652 | 4172 ft | 257 kts | 114° |
| 2026-05-07 14:52 | 52.30325 | 4.93357 | 5092 ft | 264 kts | 114° |
| 2026-05-07 14:52 | 52.29596 | 4.96107 | 6219 ft | 262 kts | 112° |
| 2026-05-07 14:52 | 52.29074 | 4.98869 | 7110 ft | 270 kts | 106° |
| 2026-05-07 14:53 | 52.28576 | 5.01851 | 7972 ft | 276 kts | 107° |
| 2026-05-07 14:53 | 52.28056 | 5.04883 | 8881 ft | 283 kts | 107° |
| 2026-05-07 14:53 | 52.27517 | 5.07981 | 9787 ft | 290 kts | 107° |
| 2026-05-07 14:53 | 52.26947 | 5.11232 | 10574 ft | 300 kts | 107° |
| 2026-05-07 14:54 | 52.26361 | 5.14571 | 10890 ft | 323 kts | 107° |
| 2026-05-07 14:54 | 52.25721 | 5.18223 | 11185 ft | 344 kts | 107° |
| 2026-05-07 14:54 | 52.25059 | 5.21985 | 11937 ft | 347 kts | 108° |
| 2026-05-07 14:54 | 52.24188 | 5.25675 | 12692 ft | 351 kts | 116° |
| 2026-05-07 14:55 | 52.22980 | 5.29139 | 12992 ft | 353 kts | 125° |
| 2026-05-07 14:55 | 52.21541 | 5.32375 | 13068 ft | 354 kts | 127° |
| 2026-05-07 14:55 | 52.20098 | 5.35641 | 13073 ft | 353 kts | 126° |
| 2026-05-07 14:55 | 52.18687 | 5.38872 | 13072 ft | 352 kts | 126° |
| 2026-05-07 14:56 | 52.17267 | 5.42135 | 13176 ft | 354 kts | 126° |
| 2026-05-07 14:56 | 52.15838 | 5.45419 | 13630 ft | 358 kts | 126° |
| 2026-05-07 14:56 | 52.14399 | 5.48722 | 14428 ft | 359 kts | 126° |
| 2026-05-07 14:56 | 52.12948 | 5.52043 | 15144 ft | 363 kts | 126° |
| 2026-05-07 14:57 | 52.11472 | 5.55418 | 15836 ft | 366 kts | 126° |
| 2026-05-07 14:57 | 52.09985 | 5.58812 | 16518 ft | 370 kts | 126° |
| 2026-05-07 14:57 | 52.08482 | 5.62239 | 17202 ft | 374 kts | 126° |
| 2026-05-07 14:57 | 52.06959 | 5.65706 | 17871 ft | 378 kts | 126° |
| 2026-05-07 14:58 | 52.05341 | 5.69111 | 18507 ft | 382 kts | 131° |
| 2026-05-07 14:58 | 52.03574 | 5.72379 | 19113 ft | 385 kts | 132° |
| 2026-05-07 14:58 | 52.01819 | 5.75642 | 19722 ft | 388 kts | 132° |
| 2026-05-07 14:58 | 52.00025 | 5.78981 | 20283 ft | 391 kts | 132° |
| 2026-05-07 14:59 | 51.98232 | 5.82319 | 20843 ft | 395 kts | 132° |
| 2026-05-07 14:59 | 51.96417 | 5.85698 | 21405 ft | 398 kts | 132° |
| 2026-05-07 14:59 | 51.94629 | 5.89038 | 21923 ft | 401 kts | 132° |
| 2026-05-07 14:59 | 51.92790 | 5.92473 | 22466 ft | 404 kts | 132° |
| 2026-05-07 15:00 | 51.90936 | 5.95932 | 23007 ft | 407 kts | 132° |
| 2026-05-07 15:00 | 51.89067 | 5.99412 | 23551 ft | 411 kts | 133° |
| 2026-05-07 15:00 | 51.87178 | 6.02923 | 24057 ft | 414 kts | 133° |
| 2026-05-07 15:00 | 51.85302 | 6.06404 | 24533 ft | 416 kts | 133° |
| 2026-05-07 15:01 | 51.83379 | 6.09952 | 24916 ft | 420 kts | 133° |
| 2026-05-07 15:01 | 51.81440 | 6.13512 | 25050 ft | 422 kts | 133° |
| 2026-05-07 15:01 | 51.79527 | 6.17015 | 25050 ft | 420 kts | 133° |
| 2026-05-07 15:01 | 51.77566 | 6.20603 | 25050 ft | 420 kts | 133° |
| 2026-05-07 15:02 | 51.75657 | 6.24095 | 25048 ft | 420 kts | 133° |
| 2026-05-07 15:02 | 51.73719 | 6.27630 | 25046 ft | 420 kts | 133° |
| 2026-05-07 15:02 | 51.71777 | 6.31168 | 25046 ft | 420 kts | 133° |
| 2026-05-07 15:02 | 51.69838 | 6.34695 | 25046 ft | 420 kts | 133° |
| 2026-05-07 15:03 | 51.67897 | 6.38224 | 25042 ft | 420 kts | 133° |
| 2026-05-07 15:03 | 51.65962 | 6.41736 | 25043 ft | 420 kts | 133° |
| 2026-05-07 15:03 | 51.64040 | 6.45219 | 25048 ft | 420 kts | 133° |
| 2026-05-07 15:03 | 51.62070 | 6.48784 | 25046 ft | 421 kts | 133° |
| 2026-05-07 15:04 | 51.60151 | 6.52256 | 25048 ft | 421 kts | 133° |
| 2026-05-07 15:04 | 51.58212 | 6.55759 | 25049 ft | 421 kts | 133° |
| 2026-05-07 15:04 | 51.56257 | 6.59286 | 25049 ft | 421 kts | 133° |
| 2026-05-07 15:04 | 51.54313 | 6.62788 | 25049 ft | 421 kts | 133° |
| 2026-05-07 15:05 | 51.53068 | 6.65027 | 25049 ft | 421 kts | 133° |
| 2026-05-07 15:05 | 51.50462 | 6.69709 | 25049 ft | 421 kts | 133° |
| 2026-05-07 15:05 | 51.49163 | 6.72041 | 25049 ft | 421 kts | 133° |
| 2026-05-07 15:05 | 51.47199 | 6.75560 | 25049 ft | 420 kts | 133° |
| 2026-05-07 15:06 | 51.45248 | 6.79051 | 25049 ft | 420 kts | 133° |
| 2026-05-07 15:06 | 51.43299 | 6.82533 | 25049 ft | 420 kts | 133° |
| 2026-05-07 15:06 | 51.41345 | 6.86022 | 25046 ft | 420 kts | 133° |
| 2026-05-07 15:06 | 51.39447 | 6.89595 | 25047 ft | 421 kts | 130° |
| 2026-05-07 15:07 | 51.37656 | 6.93222 | 25049 ft | 421 kts | 129° |
| 2026-05-07 15:07 | 51.35809 | 6.96951 | 25045 ft | 421 kts | 130° |
| 2026-05-07 15:07 | 51.34023 | 7.00547 | 25048 ft | 421 kts | 130° |
| 2026-05-07 15:07 | 51.32161 | 7.04286 | 25046 ft | 421 kts | 130° |
| 2026-05-07 15:08 | 51.30356 | 7.07900 | 25050 ft | 421 kts | 130° |
| 2026-05-07 15:08 | 51.28490 | 7.11519 | 25045 ft | 421 kts | 134° |
| 2026-05-07 15:08 | 51.26360 | 7.14688 | 25048 ft | 419 kts | 143° |
| 2026-05-07 15:08 | 51.23945 | 7.17301 | 25048 ft | 417 kts | 152° |
| 2026-05-07 15:09 | 51.21360 | 7.19381 | 25049 ft | 417 kts | 155° |
| 2026-05-07 15:09 | 51.18752 | 7.21421 | 25044 ft | 417 kts | 155° |
| 2026-05-07 15:09 | 51.16155 | 7.23473 | 25052 ft | 417 kts | 155° |
| 2026-05-07 15:09 | 51.13543 | 7.25542 | 25048 ft | 417 kts | 155° |
| 2026-05-07 15:10 | 51.10955 | 7.27593 | 25046 ft | 417 kts | 155° |
| 2026-05-07 15:10 | 51.08366 | 7.29703 | 25046 ft | 418 kts | 154° |
| 2026-05-07 15:10 | 51.05780 | 7.31850 | 25047 ft | 418 kts | 154° |
| 2026-05-07 15:10 | 51.03205 | 7.33988 | 25046 ft | 418 kts | 154° |
| 2026-05-07 15:11 | 51.00642 | 7.36112 | 25047 ft | 418 kts | 154° |
| 2026-05-07 15:11 | 50.98066 | 7.38240 | 25050 ft | 418 kts | 154° |
| 2026-05-07 15:11 | 50.95519 | 7.40337 | 25046 ft | 418 kts | 154° |
| 2026-05-07 15:11 | 50.92936 | 7.42457 | 25046 ft | 418 kts | 154° |
| 2026-05-07 15:12 | 50.90351 | 7.44576 | 25044 ft | 418 kts | 154° |
| 2026-05-07 15:12 | 50.87762 | 7.46696 | 25046 ft | 418 kts | 154° |
| 2026-05-07 15:12 | 50.85180 | 7.48807 | 25048 ft | 418 kts | 154° |
| 2026-05-07 15:12 | 50.82589 | 7.50924 | 25045 ft | 418 kts | 154° |
| 2026-05-07 15:13 | 50.80001 | 7.53034 | 25046 ft | 419 kts | 154° |
| 2026-05-07 15:13 | 50.77409 | 7.55145 | 25045 ft | 420 kts | 154° |
| 2026-05-07 15:13 | 50.74831 | 7.57242 | 25041 ft | 420 kts | 154° |
| 2026-05-07 15:13 | 50.72232 | 7.59354 | 25037 ft | 420 kts | 154° |
| 2026-05-07 15:14 | 50.69637 | 7.61461 | 25043 ft | 420 kts | 154° |
| 2026-05-07 15:14 | 50.67036 | 7.63569 | 25043 ft | 420 kts | 154° |
| 2026-05-07 15:14 | 50.64458 | 7.65655 | 25036 ft | 420 kts | 154° |
| 2026-05-07 15:14 | 50.61864 | 7.67753 | 25042 ft | 420 kts | 154° |
| 2026-05-07 15:15 | 50.59226 | 7.69883 | 25047 ft | 422 kts | 154° |
| 2026-05-07 15:15 | 50.56642 | 7.71966 | 25046 ft | 421 kts | 154° |
| 2026-05-07 15:15 | 50.54053 | 7.74050 | 25049 ft | 421 kts | 154° |
| 2026-05-07 15:15 | 50.51438 | 7.76152 | 25047 ft | 421 kts | 154° |
| 2026-05-07 15:16 | 50.48832 | 7.78245 | 25050 ft | 422 kts | 154° |
| 2026-05-07 15:16 | 50.46218 | 7.80342 | 25047 ft | 422 kts | 154° |
| 2026-05-07 15:16 | 50.43639 | 7.82557 | 25049 ft | 423 kts | 149° |
| 2026-05-07 15:16 | 50.41250 | 7.85249 | 25049 ft | 423 kts | 142° |
| 2026-05-07 15:17 | 50.38951 | 7.88148 | 25049 ft | 423 kts | 142° |
| 2026-05-07 15:17 | 50.36651 | 7.91021 | 25045 ft | 424 kts | 142° |
| 2026-05-07 15:17 | 50.34337 | 7.93895 | 25047 ft | 424 kts | 142° |
| 2026-05-07 15:17 | 50.32051 | 7.96724 | 25047 ft | 424 kts | 142° |
| 2026-05-07 15:18 | 50.29703 | 7.99623 | 25050 ft | 424 kts | 142° |
| 2026-05-07 15:18 | 50.27448 | 8.02484 | 25049 ft | 424 kts | 139° |
| 2026-05-07 15:18 | 50.25376 | 8.05759 | 25049 ft | 425 kts | 131° |
| 2026-05-07 15:18 | 50.23551 | 8.09390 | 25049 ft | 425 kts | 127° |
| 2026-05-07 15:19 | 50.21756 | 8.13081 | 25049 ft | 425 kts | 128° |
| 2026-05-07 15:19 | 50.19957 | 8.16746 | 25047 ft | 425 kts | 128° |
| 2026-05-07 15:19 | 50.18159 | 8.20390 | 25046 ft | 425 kts | 128° |
| 2026-05-07 15:19 | 50.16347 | 8.24049 | 25046 ft | 425 kts | 128° |
| 2026-05-07 15:20 | 50.14561 | 8.27653 | 25045 ft | 425 kts | 128° |